Time;durP1;ratioP1;P1;durP2;ratioP2;P2;SDS_P1;SDS_P2;PMS_P1;PMS_P2;Temp;Humidity;BMP_temperature;BMP_pressure;BME280_temperature;BME280_humidity;BME280_pressure;Samples;Min_cycle;Max_cycle;Signal;HPM_P1;HPM_P2
2021/03/12 00:00:37;;;;;;;5.95;1.10;;;7.30;99.90;;;;;;5090420;28;20410;-49
2021/03/12 00:03:25;;;;;;;4.90;0.90;;;7.50;99.90;;;;;;5090138;28;20382;-49
2021/03/12 00:05:53;;;;;;;6.43;1.10;;;7.50;99.90;;;;;;5090194;28;20363;-49
2021/03/12 00:08:29;;;;;;;4.80;0.90;;;7.60;99.90;;;;;;5090776;28;20406;-49
2021/03/12 00:10:54;;;;;;;7.07;1.10;;;7.70;99.90;;;;;;5089784;28;20400;-50
2021/03/12 00:13:21;;;;;;;3.10;0.70;;;7.70;99.90;;;;;;5090729;28;20377;-49
2021/03/12 00:15:47;;;;;;;5.70;0.70;;;7.70;99.90;;;;;;5090361;28;20431;-56
2021/03/12 00:18:19;;;;;;;5.57;0.70;;;7.80;99.90;;;;;;5090042;28;20433;-50
2021/03/12 00:20:46;;;;;;;3.70;0.60;;;7.80;99.90;;;;;;5090042;28;20417;-49
2021/03/12 00:23:11;;;;;;;4.22;0.73;;;7.80;99.90;;;;;;5090282;28;20377;-49
2021/03/12 00:25:45;;;;;;;4.50;0.90;;;7.80;99.90;;;;;;5090341;28;20415;-49
2021/03/12 00:28:12;;;;;;;3.70;0.70;;;7.90;99.90;;;;;;5089807;28;20370;-50
2021/03/12 00:30:39;;;;;;;5.68;0.80;;;7.80;99.90;;;;;;5090404;28;20413;-49
2021/03/12 00:33:06;;;;;;;4.45;0.82;;;7.80;99.90;;;;;;5071226;28;20382;-50
2021/03/12 00:35:42;;;;;;;6.88;1.30;;;7.90;99.90;;;;;;5090255;28;20378;-49
2021/03/12 00:38:09;;;;;;;4.65;0.80;;;7.90;99.90;;;;;;5089687;28;20381;-49
2021/03/12 00:40:44;;;;;;;4.20;0.70;;;7.90;99.90;;;;;;5090222;28;20405;-49
2021/03/12 00:43:11;;;;;;;3.63;0.63;;;7.90;99.90;;;;;;5089199;28;20389;-49
2021/03/12 00:45:39;;;;;;;3.63;0.80;;;7.90;99.90;;;;;;5089638;28;20382;-49
2021/03/12 00:48:05;;;;;;;4.80;0.90;;;7.80;99.90;;;;;;5088077;28;20394;-49
2021/03/12 00:50:33;;;;;;;6.20;0.95;;;7.80;99.90;;;;;;5090493;28;20470;-49
2021/03/12 00:52:59;;;;;;;7.10;0.93;;;7.80;99.90;;;;;;5069802;28;20409;-49
2021/03/12 00:55:25;;;;;;;2.90;0.60;;;7.80;99.90;;;;;;5090020;28;20393;-49
2021/03/12 00:57:50;;;;;;;4.30;0.97;;;7.80;99.90;;;;;;5087715;28;20417;-53
2021/03/12 01:00:21;;;;;;;3.72;0.80;;;7.80;99.90;;;;;;5089726;28;20878;-49
2021/03/12 01:02:46;;;;;;;4.10;0.80;;;7.80;99.90;;;;;;5070717;28;20401;-57
2021/03/12 01:05:12;;;;;;;4.00;0.80;;;7.80;99.90;;;;;;5088971;28;20374;-49
2021/03/12 01:07:38;;;;;;;4.78;0.82;;;7.80;99.90;;;;;;5088536;28;20406;-50
2021/03/12 01:10:05;;;;;;;3.20;0.40;;;7.70;99.90;;;;;;5088787;28;20751;-49
2021/03/12 01:12:31;;;;;;;3.65;0.60;;;7.70;99.90;;;;;;5091286;28;20882;-49
2021/03/12 01:14:56;;;;;;;4.70;1.07;;;7.70;99.90;;;;;;5091519;28;20498;-49
2021/03/12 01:17:22;;;;;;;5.22;1.05;;;7.70;99.90;;;;;;5093048;28;20397;-50
2021/03/12 01:19:48;;;;;;;3.42;0.80;;;7.70;99.90;;;;;;5092609;28;20397;-57
2021/03/12 01:22:14;;;;;;;6.10;1.20;;;7.10;99.90;;;;;;5093249;28;20378;-49
2021/03/12 01:24:39;;;;;;;4.40;1.50;;;7.20;99.90;;;;;;5092533;28;20401;-50
2021/03/12 01:27:06;;;;;;;6.35;1.60;;;6.50;99.90;;;;;;5092556;28;20390;-50
2021/03/12 01:29:32;;;;;;;3.57;1.10;;;6.60;99.90;;;;;;5092387;28;21133;-49
2021/03/12 01:31:58;;;;;;;4.40;1.20;;;6.60;99.90;;;;;;5091496;28;20878;-50
2021/03/12 01:34:24;;;;;;;4.30;1.20;;;6.70;99.90;;;;;;5093250;28;20378;-50
2021/03/12 01:36:50;;;;;;;5.05;1.10;;;6.70;99.90;;;;;;5091183;28;20932;-57
2021/03/12 01:39:16;;;;;;;5.50;1.00;;;6.90;99.90;;;;;;5092988;28;20389;-50
2021/03/12 01:41:41;;;;;;;3.40;0.80;;;6.90;99.90;;;;;;5092489;28;20806;-49
2021/03/12 01:44:07;;;;;;;3.63;0.80;;;7.00;99.90;;;;;;5091566;28;20405;-51
2021/03/12 01:46:32;;;;;;;6.07;1.20;;;7.20;99.90;;;;;;5093318;28;20370;-49
2021/03/12 01:48:58;;;;;;;4.30;1.30;;;7.10;99.90;;;;;;5091711;28;20801;-51
2021/03/12 01:51:24;;;;;;;4.57;0.98;;;6.80;99.90;;;;;;5092427;28;20425;-49
2021/03/12 01:53:50;;;;;;;3.40;0.83;;;6.80;99.90;;;;;;5091713;28;20399;-57
2021/03/12 01:56:15;;;;;;;4.60;0.90;;;6.70;99.90;;;;;;5092513;28;20394;-52
2021/03/12 01:58:41;;;;;;;4.28;1.00;;;6.50;99.90;;;;;;5091869;28;20398;-49
2021/03/12 02:01:06;;;;;;;4.00;1.00;;;6.40;99.90;;;;;;5090754;28;20422;-49
2021/03/12 02:03:34;;;;;;;4.20;1.20;;;6.30;99.90;;;;;;5092655;28;20389;-49
2021/03/12 02:06:00;;;;;;;6.53;1.00;;;6.40;99.90;;;;;;5090839;28;20405;-50
2021/03/12 02:08:26;;;;;;;5.65;0.90;;;6.40;99.90;;;;;;5092746;28;20378;-49
2021/03/12 02:10:53;;;;;;;6.18;1.10;;;6.60;99.90;;;;;;5092579;28;20374;-57
2021/03/12 02:13:44;;;;;;;4.32;1.38;;;6.60;99.90;;;;;;5091447;28;20397;-49
2021/03/12 02:16:21;;;;;;;4.97;0.80;;;8.20;99.90;;;;;;5092000;28;20389;-49
2021/03/12 02:19:03;;;;;;;3.40;0.70;;;6.80;99.90;;;;;;5092188;28;20932;-49
2021/03/12 02:21:35;;;;;;;5.07;1.00;;;6.90;99.90;;;;;;5092181;28;20409;-49
2021/03/12 02:24:06;;;;;;;5.72;1.17;;;7.00;99.90;;;;;;5091744;28;20374;-50
2021/03/12 02:26:44;;;;;;;4.97;1.20;;;7.00;99.90;;;;;;5090969;28;20402;-49
2021/03/12 02:29:17;;;;;;;6.78;0.80;;;7.00;99.90;;;;;;5091880;28;20734;-50
2021/03/12 02:31:42;;;;;;;6.68;1.10;;;7.00;99.90;;;;;;5091423;28;20394;-49
2021/03/12 02:34:11;;;;;;;5.30;1.20;;;6.80;99.90;;;;;;5090990;28;20390;-50
2021/03/12 02:36:41;;;;;;;3.80;0.80;;;6.80;99.90;;;;;;5092653;28;20374;-49
2021/03/12 02:39:09;;;;;;;6.00;1.00;;;6.80;99.90;;;;;;5090385;28;20482;-49
2021/03/12 02:41:37;;;;;;;4.13;0.90;;;6.70;99.90;;;;;;5091891;28;20754;-49
2021/03/12 02:44:06;;;;;;;3.70;0.90;;;6.70;99.90;;;;;;5090912;28;20401;-50
2021/03/12 02:46:33;;;;;;;10.27;0.80;;;6.80;99.90;;;;;;5090875;28;20496;-49
2021/03/12 02:48:59;;;;;;;3.72;0.82;;;6.70;99.90;;;;;;5089878;28;20421;-51
2021/03/12 02:51:25;;;;;;;3.70;0.63;;;6.70;99.90;;;;;;5091854;28;20390;-49
2021/03/12 02:53:51;;;;;;;4.03;0.70;;;6.60;99.90;;;;;;5090314;28;20405;-57
2021/03/12 02:56:18;;;;;;;7.97;1.10;;;6.70;99.90;;;;;;5090813;28;20398;-49
2021/03/12 02:58:45;;;;;;;5.07;1.10;;;6.50;99.90;;;;;;5090536;28;20440;-49
2021/03/12 03:01:13;;;;;;;5.38;1.10;;;6.50;99.90;;;;;;5090766;28;20413;-53
2021/03/12 03:03:40;;;;;;;6.65;1.00;;;6.50;99.90;;;;;;5090961;28;20481;-49
2021/03/12 03:06:07;;;;;;;4.18;0.73;;;6.50;99.90;;;;;;5072888;28;20390;-49
2021/03/12 03:08:38;;;;;;;5.45;0.98;;;6.50;99.90;;;;;;5090721;28;20389;-49
2021/03/12 03:11:08;;;;;;;4.88;0.85;;;6.50;99.90;;;;;;5090043;28;20390;-50
2021/03/12 03:13:36;;;;;;;6.63;1.10;;;6.60;99.90;;;;;;5089848;28;20434;-52
2021/03/12 03:16:05;;;;;;;4.78;0.70;;;6.60;99.90;;;;;;5090737;28;20851;-49
2021/03/12 03:18:33;;;;;;;3.65;0.70;;;6.70;99.90;;;;;;5091061;28;20447;-49
2021/03/12 03:21:00;;;;;;;3.72;0.82;;;6.70;99.90;;;;;;5089419;28;20424;-50
2021/03/12 03:23:27;;;;;;;4.72;0.93;;;6.80;99.90;;;;;;5091797;28;20378;-49
2021/03/12 03:25:54;;;;;;;6.60;1.03;;;6.90;99.90;;;;;;5073120;28;20434;-57
2021/03/12 03:28:20;;;;;;;4.73;0.70;;;6.90;99.90;;;;;;5090038;28;20433;-49
2021/03/12 03:30:45;;;;;;;4.40;0.70;;;7.00;99.90;;;;;;5090146;28;20432;-49
2021/03/12 03:33:11;;;;;;;5.70;0.90;;;6.90;99.90;;;;;;5090436;28;20877;-52
2021/03/12 03:35:37;;;;;;;4.13;0.70;;;6.90;99.90;;;;;;5089385;28;20389;-49
2021/03/12 03:38:02;;;;;;;6.70;0.90;;;6.90;99.90;;;;;;5090506;28;20416;-49
2021/03/12 03:40:28;;;;;;;4.70;0.77;;;6.90;99.90;;;;;;5089447;28;20895;-49
2021/03/12 03:42:56;;;;;;;3.57;0.80;;;6.90;99.90;;;;;;5086222;28;20374;-57
2021/03/12 03:45:29;;;;;;;5.13;0.80;;;6.80;99.90;;;;;;5089709;28;20447;-49
2021/03/12 03:47:56;;;;;;;4.00;0.82;;;6.90;99.90;;;;;;5089246;28;20378;-55
2021/03/12 03:50:23;;;;;;;3.67;0.70;;;6.90;99.90;;;;;;5091105;28;20366;-49
2021/03/12 03:52:49;;;;;;;5.18;0.70;;;6.80;99.90;;;;;;5091207;28;20378;-49
2021/03/12 03:55:18;;;;;;;4.50;0.90;;;6.80;99.90;;;;;;5088663;28;20504;-49
2021/03/12 03:57:44;;;;;;;3.42;0.80;;;6.80;99.90;;;;;;5090715;28;20474;-49
2021/03/12 04:00:11;;;;;;;4.10;1.02;;;6.90;99.90;;;;;;5070109;28;20491;-49
2021/03/12 04:02:37;;;;;;;3.87;1.00;;;6.70;99.90;;;;;;5090154;28;20378;-49
2021/03/12 04:05:04;;;;;;;5.27;0.70;;;6.80;99.90;;;;;;5089353;28;20449;-51
2021/03/12 04:07:31;;;;;;;4.83;0.90;;;6.70;99.90;;;;;;5090462;28;20399;-49
2021/03/12 04:09:57;;;;;;;3.83;1.17;;;7.20;99.90;;;;;;5087917;28;20895;-49
2021/03/12 04:12:25;;;;;;;3.80;0.90;;;6.90;99.90;;;;;;5072491;28;20466;-49
2021/03/12 04:14:51;;;;;;;3.75;0.73;;;6.70;99.90;;;;;;5090444;28;20377;-49
2021/03/12 04:17:17;;;;;;;3.95;0.70;;;6.70;99.90;;;;;;5083718;28;20394;-50
2021/03/12 04:19:44;;;;;;;6.07;1.00;;;6.70;99.90;;;;;;5091219;28;20461;-49
2021/03/12 04:22:11;;;;;;;6.18;1.20;;;6.60;99.90;;;;;;5089777;28;20464;-52
2021/03/12 04:24:37;;;;;;;4.22;0.80;;;6.60;99.90;;;;;;5089704;28;20382;-49
2021/03/12 04:27:04;;;;;;;9.30;1.00;;;6.60;99.90;;;;;;5090083;28;20499;-49
2021/03/12 04:29:30;;;;;;;8.27;1.15;;;6.60;99.90;;;;;;5089055;28;20477;-49
2021/03/12 04:31:56;;;;;;;6.65;0.75;;;6.60;99.90;;;;;;5089244;28;20473;-51
2021/03/12 04:34:22;;;;;;;6.05;0.98;;;6.50;99.90;;;;;;5088965;28;20481;-49
2021/03/12 04:36:48;;;;;;;5.68;1.35;;;6.50;99.90;;;;;;5089499;28;20836;-49
2021/03/12 04:39:15;;;;;;;5.80;1.00;;;6.50;99.90;;;;;;5089502;28;20377;-49
2021/03/12 04:41:41;;;;;;;8.40;1.88;;;6.50;99.90;;;;;;5089051;28;20417;-49
2021/03/12 04:44:09;;;;;;;4.33;0.90;;;6.60;99.90;;;;;;5088901;28;20465;-49
2021/03/12 04:46:36;;;;;;;3.33;0.65;;;6.50;99.90;;;;;;5089236;28;20397;-49
2021/03/12 04:49:03;;;;;;;6.72;1.40;;;6.50;99.90;;;;;;5089753;28;20549;-49
2021/03/12 04:51:29;;;;;;;4.65;0.98;;;6.50;99.90;;;;;;5070884;28;20981;-49
2021/03/12 04:53:56;;;;;;;5.00;1.00;;;6.60;99.90;;;;;;5089404;28;20366;-56
2021/03/12 04:56:21;;;;;;;4.53;1.10;;;6.50;99.90;;;;;;5088360;28;20398;-49
2021/03/12 04:58:47;;;;;;;4.83;0.90;;;6.50;99.90;;;;;;5089890;28;20727;-49
2021/03/12 05:01:13;;;;;;;6.00;1.00;;;6.50;99.90;;;;;;5087700;28;20986;-49
2021/03/12 05:03:39;;;;;;;6.43;1.17;;;6.50;99.90;;;;;;5090303;28;20366;-49
2021/03/12 05:06:08;;;;;;;6.20;1.15;;;6.50;99.90;;;;;;5087786;28;20463;-49
2021/03/12 05:08:36;;;;;;;5.10;1.03;;;6.50;99.90;;;;;;5090020;28;20422;-49
2021/03/12 05:11:04;;;;;;;5.75;1.27;;;6.50;99.90;;;;;;5088467;28;20417;-52
2021/03/12 05:13:30;;;;;;;5.88;1.10;;;6.50;99.90;;;;;;5089624;28;20390;-49
2021/03/12 05:15:56;;;;;;;5.63;1.23;;;6.50;99.90;;;;;;5089511;28;20374;-56
2021/03/12 05:18:22;;;;;;;4.60;1.00;;;6.50;99.90;;;;;;5088476;28;20422;-53
2021/03/12 05:20:49;;;;;;;7.20;1.23;;;6.50;99.90;;;;;;5089475;28;20417;-52
2021/03/12 05:23:16;;;;;;;5.25;1.20;;;6.70;99.90;;;;;;5086977;28;20402;-51
2021/03/12 05:25:42;;;;;;;5.78;1.00;;;6.80;99.90;;;;;;5089469;28;20797;-51
2021/03/12 05:28:08;;;;;;;7.35;1.08;;;6.90;99.90;;;;;;5089093;28;20464;-51
2021/03/12 05:30:34;;;;;;;6.75;1.27;;;6.80;99.90;;;;;;5070243;28;20774;-51
2021/03/12 05:33:00;;;;;;;5.60;1.00;;;6.90;99.90;;;;;;5070953;28;20429;-52
2021/03/12 05:35:25;;;;;;;5.60;1.20;;;7.00;99.90;;;;;;5088368;28;20390;-52
2021/03/12 05:37:51;;;;;;;4.75;1.10;;;6.90;99.90;;;;;;5089926;28;20393;-51
2021/03/12 05:40:17;;;;;;;7.70;1.10;;;6.90;99.90;;;;;;5089004;28;21193;-51
2021/03/12 05:42:43;;;;;;;4.00;0.90;;;6.80;99.90;;;;;;5088381;28;20894;-51
2021/03/12 05:45:10;;;;;;;5.60;1.20;;;6.80;99.90;;;;;;5088685;28;20385;-51
2021/03/12 05:47:36;;;;;;;5.25;0.82;;;6.80;99.90;;;;;;5087875;28;20700;-51
2021/03/12 05:50:04;;;;;;;6.00;1.40;;;6.70;99.90;;;;;;5088936;28;20382;-50
2021/03/12 05:52:30;;;;;;;5.20;1.20;;;6.60;99.90;;;;;;5088167;28;20394;-50
2021/03/12 05:54:56;;;;;;;6.97;1.10;;;6.60;99.90;;;;;;5081951;28;20399;-56
2021/03/12 05:57:27;;;;;;;7.60;1.00;;;6.70;99.90;;;;;;5084346;28;20936;-50
2021/03/12 05:59:53;;;;;;;7.80;1.00;;;6.70;99.90;;;;;;5092894;28;20414;-50
2021/03/12 06:02:19;;;;;;;6.55;1.10;;;6.70;99.90;;;;;;5092592;28;20381;-50
2021/03/12 06:04:45;;;;;;;4.72;1.20;;;6.60;99.90;;;;;;5091873;28;20390;-50
2021/03/12 06:07:14;;;;;;;4.03;1.00;;;6.70;99.90;;;;;;5092094;28;20739;-49
2021/03/12 06:09:46;;;;;;;7.25;1.50;;;6.70;99.90;;;;;;5074916;28;20386;-50
2021/03/12 06:12:12;;;;;;;8.27;1.70;;;6.70;99.90;;;;;;5090730;28;20812;-50
2021/03/12 06:14:49;;;;;;;7.97;1.27;;;6.90;99.90;;;;;;5092873;28;20473;-49
2021/03/12 06:17:41;;;;;;;5.65;1.10;;;6.80;99.90;;;;;;5090593;28;21087;-50
2021/03/12 06:20:09;;;;;;;6.00;1.45;;;6.90;99.90;;;;;;5089230;28;20392;-50
2021/03/12 06:22:35;;;;;;;6.13;1.02;;;6.80;99.90;;;;;;5092194;28;20393;-51
2021/03/12 06:25:12;;;;;;;8.50;1.70;;;7.10;99.90;;;;;;5090939;28;20401;-50
2021/03/12 06:27:38;;;;;;;4.85;1.20;;;7.20;99.90;;;;;;5082474;28;20487;-50
2021/03/12 06:30:04;;;;;;;4.67;0.93;;;7.50;99.90;;;;;;5091091;28;20436;-50
2021/03/12 06:32:49;;;;;;;6.45;1.10;;;7.60;99.90;;;;;;5091363;28;20394;-49
2021/03/12 06:35:19;;;;;;;4.53;1.10;;;7.40;99.90;;;;;;5091457;28;20379;-49
2021/03/12 06:37:46;;;;;;;5.15;0.80;;;7.30;99.90;;;;;;5091274;28;20390;-49
2021/03/12 06:40:26;;;;;;;5.13;1.10;;;7.00;99.90;;;;;;5090188;28;20903;-49
2021/03/12 06:43:10;;;;;;;5.27;0.90;;;6.60;99.90;;;;;;5092566;28;20385;-49
2021/03/12 06:45:41;;;;;;;6.32;1.30;;;6.30;99.90;;;;;;5090972;28;20398;-50
2021/03/12 06:48:23;;;;;;;5.10;1.10;;;6.10;99.90;;;;;;5091472;28;20461;-50
2021/03/12 06:50:50;;;;;;;4.35;0.90;;;6.20;99.90;;;;;;5092390;28;20461;-51
2021/03/12 06:53:34;;;;;;;6.27;1.00;;;6.30;99.90;;;;;;5088642;28;20398;-55
2021/03/12 06:56:03;;;;;;;5.25;1.10;;;7.40;99.90;;;;;;5081632;28;20449;-50
2021/03/12 06:58:29;;;;;;;8.55;1.00;;;6.40;99.90;;;;;;5090551;28;20432;-50
2021/03/12 07:00:55;;;;;;;6.07;1.20;;;6.50;99.90;;;;;;5087411;28;20418;-49
2021/03/12 07:03:28;;;;;;;6.83;1.10;;;6.40;99.90;;;;;;5086714;28;20853;-50
2021/03/12 07:06:01;;;;;;;5.93;1.20;;;6.40;99.90;;;;;;5053580;28;20446;-47
2021/03/12 07:08:29;;;;;;;6.13;1.17;;;6.40;99.90;;;;;;5071269;28;20395;-49
2021/03/12 07:10:55;;;;;;;5.80;1.30;;;6.40;99.90;;;;;;5070034;28;20388;-50
2021/03/12 07:13:21;;;;;;;6.07;1.02;;;6.80;99.90;;;;;;5087073;28;20443;-50
2021/03/12 07:15:50;;;;;;;4.32;0.80;;;7.90;99.90;;;;;;5090915;28;20390;-50
2021/03/12 07:18:16;;;;;;;5.50;1.10;;;8.80;99.90;;;;;;5072355;28;21223;-49
2021/03/12 07:20:42;;;;;;;5.07;1.30;;;8.20;99.90;;;;;;5073236;28;20413;-49
2021/03/12 07:23:08;;;;;;;8.40;1.30;;;7.90;99.90;;;;;;5089948;28;20912;-52
2021/03/12 07:25:34;;;;;;;5.63;1.20;;;7.60;99.90;;;;;;5090474;28;20446;-50
2021/03/12 07:28:02;;;;;;;6.28;1.17;;;7.40;99.90;;;;;;5090428;28;20420;-57
2021/03/12 07:30:29;;;;;;;4.70;1.30;;;7.30;99.90;;;;;;5073705;28;20391;-50
2021/03/12 07:32:57;;;;;;;6.50;1.67;;;7.30;99.90;;;;;;5053006;28;20384;-50
2021/03/12 07:35:26;;;;;;;6.05;1.35;;;7.30;99.90;;;;;;5070172;28;20380;-50
2021/03/12 07:37:54;;;;;;;7.90;1.60;;;7.20;99.90;;;;;;5070978;28;20884;-50
2021/03/12 07:40:20;;;;;;;6.18;1.30;;;7.00;99.90;;;;;;5069148;28;21007;-49
2021/03/12 07:42:47;;;;;;;6.72;1.40;;;7.00;99.90;;;;;;5070951;28;20884;-49
2021/03/12 07:45:17;;;;;;;5.60;1.38;;;6.90;99.90;;;;;;5069871;28;20392;-50
2021/03/12 07:47:44;;;;;;;8.10;1.77;;;6.90;99.90;;;;;;5070411;28;20501;-49
2021/03/12 07:50:36;;;;;;;7.28;1.50;;;6.90;99.90;;;;;;5069390;28;20897;-51
2021/03/12 07:53:02;;;;;;;7.70;1.33;;;6.90;99.90;;;;;;5070094;28;20445;-51
2021/03/12 07:55:37;;;;;;;6.43;1.55;;;6.80;99.90;;;;;;5070057;28;20478;-49
2021/03/12 07:58:07;;;;;;;5.60;1.25;;;6.70;99.90;;;;;;5070025;28;20387;-50
2021/03/12 08:00:52;;;;;;;8.77;1.45;;;6.60;99.90;;;;;;5069681;28;20416;-50
2021/03/12 08:03:29;;;;;;;5.70;1.40;;;6.50;99.90;;;;;;5075842;28;21132;-51
2021/03/12 08:05:55;;;;;;;5.82;1.30;;;6.10;99.90;;;;;;5090309;28;20378;-50
2021/03/12 08:08:31;;;;;;;6.25;1.50;;;6.00;99.90;;;;;;5089997;28;20393;-49
2021/03/12 08:11:22;;;;;;;6.32;1.70;;;5.90;99.90;;;;;;5089960;28;20438;-56
2021/03/12 08:13:49;;;;;;;6.03;1.70;;;6.00;99.90;;;;;;5090569;28;20393;-50
2021/03/12 08:16:15;;;;;;;4.57;1.20;;;7.60;99.90;;;;;;5089741;28;20435;-50
2021/03/12 08:18:41;;;;;;;6.50;1.40;;;9.30;99.90;;;;;;5072505;28;20869;-50
2021/03/12 08:21:30;;;;;;;6.25;1.20;;;10.50;99.90;;;;;;5070268;28;20439;-50
2021/03/12 08:23:56;;;;;;;5.72;1.23;;;11.30;99.90;;;;;;5077713;28;20393;-50
2021/03/12 08:26:51;;;;;;;4.00;1.00;;;12.70;99.90;;;;;;5089367;28;20412;-51
2021/03/12 08:29:34;;;;;;;4.78;1.40;;;12.70;99.90;;;;;;5089259;28;20375;-50
2021/03/12 08:32:00;;;;;;;6.70;1.55;;;13.90;99.90;;;;;;5089930;28;20386;-58
2021/03/12 08:34:36;;;;;;;6.33;1.40;;;15.00;99.90;;;;;;5090015;28;20392;-51
2021/03/12 08:37:25;;;;;;;6.00;1.00;;;14.60;99.60;;;;;;5088886;28;20417;-58
2021/03/12 08:40:10;;;;;;;8.13;1.35;;;13.70;99.10;;;;;;5077157;28;20449;-50
2021/03/12 08:42:56;;;;;;;5.65;2.45;;;11.80;99.90;;;;;;5089431;28;20390;-50
2021/03/12 08:45:40;;;;;;;5.93;1.20;;;10.40;99.90;;;;;;5089299;28;20383;-50
2021/03/12 08:48:18;;;;;;;5.93;1.00;;;9.80;99.90;;;;;;5078084;28;20901;-50
2021/03/12 08:50:53;;;;;;;4.68;0.85;;;9.70;99.90;;;;;;5070028;28;20518;-50
2021/03/12 08:53:20;;;;;;;7.70;1.30;;;9.50;99.90;;;;;;5067406;28;20788;-50
2021/03/12 08:55:48;;;;;;;5.80;1.00;;;9.40;99.90;;;;;;5068794;28;20392;-52
2021/03/12 08:58:15;;;;;;;7.70;1.40;;;9.40;99.90;;;;;;5072433;28;20378;-50
2021/03/12 09:00:41;;;;;;;5.22;0.90;;;9.20;99.90;;;;;;5087534;28;20436;-53
2021/03/12 09:03:21;;;;;;;6.93;0.80;;;8.60;99.90;;;;;;5086221;28;20398;-51
2021/03/12 09:05:52;;;;;;;4.40;0.80;;;8.10;99.90;;;;;;5089296;28;20890;-50
2021/03/12 09:08:25;;;;;;;5.72;1.20;;;8.20;99.90;;;;;;5088716;28;20667;-50
2021/03/12 09:10:51;;;;;;;5.10;0.70;;;8.40;99.90;;;;;;5087276;28;20421;-51
2021/03/12 09:13:20;;;;;;;4.80;0.90;;;8.40;99.90;;;;;;5087958;28;20413;-50
2021/03/12 09:15:48;;;;;;;6.50;1.07;;;8.20;99.90;;;;;;5089492;28;20374;-50
2021/03/12 09:18:24;;;;;;;7.80;1.45;;;8.60;99.90;;;;;;5085806;28;20405;-50
2021/03/12 09:20:55;;;;;;;5.57;0.90;;;10.20;99.90;;;;;;5087799;28;20425;-55
2021/03/12 09:23:33;;;;;;;3.13;0.60;;;10.90;99.90;;;;;;5088521;28;20450;-50
2021/03/12 09:25:59;;;;;;;6.88;1.50;;;11.10;99.90;;;;;;5087716;28;20484;-57
2021/03/12 09:28:29;;;;;;;4.95;0.93;;;10.60;99.90;;;;;;5088300;28;20501;-50
2021/03/12 09:30:56;;;;;;;7.10;0.80;;;9.80;99.90;;;;;;5089116;28;20429;-50
2021/03/12 09:33:31;;;;;;;4.68;0.70;;;9.40;99.90;;;;;;5088599;28;20480;-50
2021/03/12 09:35:58;;;;;;;6.22;1.00;;;9.40;99.90;;;;;;5092179;28;20500;-50
2021/03/12 09:38:39;;;;;;;6.18;1.00;;;9.40;99.90;;;;;;5092581;28;20394;-51
2021/03/12 09:41:12;;;;;;;4.87;1.13;;;9.00;99.90;;;;;;5089988;28;20414;-50
2021/03/12 09:43:38;;;;;;;5.30;1.15;;;9.20;99.90;;;;;;5084230;28;20473;-50
2021/03/12 09:46:05;;;;;;;5.07;0.90;;;10.50;99.90;;;;;;5090609;28;20473;-51
2021/03/12 09:48:32;;;;;;;3.80;0.90;;;9.40;99.90;;;;;;5086307;28;20397;-50
2021/03/12 09:50:58;;;;;;;3.95;0.80;;;9.10;99.90;;;;;;5092368;28;20466;-49
2021/03/12 09:53:24;;;;;;;5.60;1.02;;;9.00;99.90;;;;;;5089657;28;20484;-51
2021/03/12 09:55:53;;;;;;;5.40;0.90;;;9.00;99.90;;;;;;5092597;28;20891;-50
2021/03/12 09:58:18;;;;;;;8.98;1.08;;;9.20;99.90;;;;;;5089973;28;20451;-50
2021/03/12 10:00:44;;;;;;;5.97;1.00;;;9.00;99.90;;;;;;5090457;28;20862;-51
2021/03/12 10:03:10;;;;;;;9.70;1.50;;;9.00;99.90;;;;;;5078748;28;20897;-51
2021/03/12 10:05:35;;;;;;;4.30;1.40;;;9.70;99.90;;;;;;5082959;28;20456;-50
2021/03/12 10:08:05;;;;;;;5.05;0.85;;;9.80;99.90;;;;;;5091884;28;20743;-58
2021/03/12 10:10:35;;;;;;;6.30;1.30;;;10.30;99.90;;;;;;5091112;28;20409;-50
2021/03/12 10:13:04;;;;;;;6.65;0.85;;;10.70;99.90;;;;;;5073053;28;20876;-59
2021/03/12 10:15:35;;;;;;;5.70;1.00;;;10.90;99.90;;;;;;5091288;28;20394;-50
2021/03/12 10:18:02;;;;;;;4.70;0.80;;;11.20;99.90;;;;;;5092189;28;20382;-57
2021/03/12 10:20:32;;;;;;;6.60;1.00;;;11.30;99.90;;;;;;5086496;28;20410;-53
2021/03/12 10:23:05;;;;;;;4.15;1.15;;;11.50;99.90;;;;;;5090560;28;20393;-50
2021/03/12 10:25:36;;;;;;;4.70;1.10;;;11.30;99.90;;;;;;5090269;28;20408;-53
2021/03/12 10:28:06;;;;;;;4.82;1.02;;;10.30;99.90;;;;;;5091778;28;20495;-57
2021/03/12 10:30:42;;;;;;;7.65;1.25;;;9.80;99.90;;;;;;5091401;28;20786;-52
2021/03/12 10:33:22;;;;;;;4.35;0.70;;;10.00;99.90;;;;;;5090065;28;20398;-51
2021/03/12 10:35:52;;;;;;;4.05;1.05;;;10.30;99.90;;;;;;5092034;28;20881;-50
2021/03/12 10:38:19;;;;;;;5.10;0.80;;;10.00;99.90;;;;;;5091145;28;20374;-51
2021/03/12 10:41:01;;;;;;;4.55;1.00;;;10.60;99.90;;;;;;5090966;28;20417;-50
2021/03/12 10:43:32;;;;;;;3.95;0.50;;;11.20;99.90;;;;;;5076297;28;20390;-51
2021/03/12 10:46:03;;;;;;;5.20;0.70;;;11.10;99.10;;;;;;5090295;28;20836;-50
2021/03/12 10:48:38;;;;;;;4.90;0.65;;;11.20;99.90;;;;;;5090786;28;20435;-54
2021/03/12 10:51:05;;;;;;;4.32;1.00;;;11.10;98.30;;;;;;5090349;28;20426;-55
2021/03/12 10:53:53;;;;;;;6.65;1.50;;;11.00;99.40;;;;;;5090936;28;20398;-53
2021/03/12 10:56:19;;;;;;;6.70;1.00;;;10.50;99.90;;;;;;5089218;28;20397;-50
2021/03/12 10:58:45;;;;;;;4.75;0.90;;;10.20;99.90;;;;;;5090919;28;21089;-50
2021/03/12 11:01:24;;;;;;;6.30;1.30;;;10.20;99.90;;;;;;5088993;28;20842;-51
2021/03/12 11:03:52;;;;;;;5.78;0.70;;;10.10;99.90;;;;;;5080857;28;20528;-50
2021/03/12 11:06:19;;;;;;;5.00;1.20;;;10.00;99.80;;;;;;5074058;28;20443;-51
2021/03/12 11:08:45;;;;;;;5.50;0.70;;;9.90;98.30;;;;;;5090700;28;20391;-50
2021/03/12 11:11:14;;;;;;;4.70;0.50;;;9.80;98.60;;;;;;5089216;28;20469;-51
2021/03/12 11:13:41;;;;;;;4.63;0.52;;;9.40;97.80;;;;;;5090846;28;20382;-50
2021/03/12 11:16:07;;;;;;;5.05;0.60;;;9.50;98.10;;;;;;5089425;28;20398;-53
2021/03/12 11:18:34;;;;;;;3.30;0.52;;;9.80;97.80;;;;;;5072124;28;20396;-52
2021/03/12 11:21:02;;;;;;;3.40;0.60;;;9.80;96.80;;;;;;5090383;28;20421;-51
2021/03/12 11:23:27;;;;;;;4.20;0.80;;;9.80;96.60;;;;;;5089756;28;20393;-50
2021/03/12 11:25:54;;;;;;;3.70;0.73;;;9.90;96.70;;;;;;5088544;28;20398;-50
2021/03/12 11:28:20;;;;;;;4.50;0.93;;;10.80;96.70;;;;;;5083940;28;20437;-50
2021/03/12 11:30:46;;;;;;;4.55;0.70;;;10.80;96.10;;;;;;5069132;28;20394;-50
2021/03/12 11:33:12;;;;;;;3.20;0.50;;;10.40;95.60;;;;;;5088723;28;20481;-55
2021/03/12 11:35:38;;;;;;;3.60;0.60;;;10.10;95.80;;;;;;5087099;28;20415;-50
2021/03/12 11:38:05;;;;;;;3.72;0.70;;;10.00;97.60;;;;;;5081655;28;20366;-57
2021/03/12 11:40:32;;;;;;;3.35;0.52;;;10.30;97.80;;;;;;5085629;28;20421;-50
2021/03/12 11:42:57;;;;;;;3.60;0.60;;;10.40;98.80;;;;;;5087809;28;20389;-50
2021/03/12 11:45:23;;;;;;;3.67;0.73;;;10.50;99.50;;;;;;5085371;28;20876;-50
2021/03/12 11:47:51;;;;;;;5.00;0.70;;;10.80;99.90;;;;;;5078656;28;20384;-51
2021/03/12 11:50:17;;;;;;;4.00;0.50;;;11.10;99.90;;;;;;5087718;28;20417;-52
2021/03/12 11:52:44;;;;;;;5.00;0.60;;;10.90;95.60;;;;;;5082231;28;20450;-51
2021/03/12 11:55:11;;;;;;;4.13;0.70;;;11.20;97.20;;;;;;5085134;28;20406;-51
2021/03/12 11:57:37;;;;;;;5.72;1.10;;;11.20;94.20;;;;;;5086181;28;20397;-51
2021/03/12 12:00:10;;;;;;;3.93;0.67;;;11.40;95.80;;;;;;5087352;28;20434;-58
2021/03/12 12:02:36;;;;;;;5.65;0.70;;;11.30;92.20;;;;;;5086324;28;20398;-50
2021/03/12 12:05:06;;;;;;;3.60;0.50;;;10.90;90.60;;;;;;5080765;28;20374;-58
2021/03/12 12:07:33;;;;;;;4.50;0.95;;;10.80;91.60;;;;;;5079525;28;20398;-52
2021/03/12 12:09:59;;;;;;;3.40;0.65;;;10.50;93.10;;;;;;5086953;28;20397;-51
2021/03/12 12:12:25;;;;;;;3.88;0.68;;;10.50;93.00;;;;;;5061996;28;20970;-51
2021/03/12 12:14:50;;;;;;;3.87;0.80;;;10.80;93.00;;;;;;5084778;28;20394;-50
2021/03/12 12:17:16;;;;;;;5.78;0.80;;;10.60;92.90;;;;;;5084843;28;20407;-51
2021/03/12 12:19:45;;;;;;;3.57;0.63;;;10.50;92.60;;;;;;5088618;28;20420;-51
2021/03/12 12:22:11;;;;;;;6.38;0.90;;;10.30;93.60;;;;;;5080527;28;20420;-50
2021/03/12 12:24:37;;;;;;;8.00;0.80;;;10.10;94.60;;;;;;5081273;28;20428;-52
2021/03/12 12:27:07;;;;;;;4.85;0.80;;;10.00;94.90;;;;;;5089186;28;20909;-58
2021/03/12 12:29:33;;;;;;;4.60;0.60;;;9.90;96.20;;;;;;5087690;28;20386;-50
2021/03/12 12:31:59;;;;;;;6.60;1.10;;;10.50;96.50;;;;;;5083262;28;20465;-50
2021/03/12 12:34:25;;;;;;;5.00;0.60;;;11.10;96.00;;;;;;5078765;28;20395;-50
2021/03/12 12:36:53;;;;;;;6.13;1.10;;;11.40;94.10;;;;;;5087538;28;20405;-50
2021/03/12 12:39:19;;;;;;;5.93;0.80;;;11.80;94.90;;;;;;5083868;28;20405;-51
2021/03/12 12:41:45;;;;;;;4.03;0.80;;;12.10;93.50;;;;;;5086726;28;20409;-52
2021/03/12 12:44:13;;;;;;;5.40;0.70;;;11.80;90.30;;;;;;5080028;28;20398;-50
2021/03/12 12:46:39;;;;;;;4.30;0.90;;;11.70;89.50;;;;;;5086168;28;20396;-50
2021/03/12 12:49:06;;;;;;;5.63;1.00;;;11.30;87.60;;;;;;5083281;28;20404;-59
2021/03/12 12:51:32;;;;;;;4.28;1.30;;;11.50;90.50;;;;;;5070163;28;20473;-50
2021/03/12 12:53:57;;;;;;;4.18;0.90;;;11.20;86.60;;;;;;5085277;28;20393;-51
2021/03/12 12:56:23;;;;;;;6.30;1.20;;;11.20;88.40;;;;;;5083570;28;20399;-50
2021/03/12 12:58:49;;;;;;;4.32;0.70;;;11.10;88.40;;;;;;5078819;28;20386;-50
2021/03/12 13:01:14;;;;;;;4.10;0.80;;;10.70;86.10;;;;;;5086113;28;20516;-50
2021/03/12 13:03:40;;;;;;;4.60;1.00;;;10.40;88.00;;;;;;5082355;28;20509;-50